Weather reports worldwide

Advertisment
Zinnwald-Georgenfeld, Germany (10582): temperature & dewpoint: 03.08.2020 23:00:00 - 09.08.2020 23:00:00 (CEST)Zinnwald-Georgenfeld, Germany (10582): temperature 5cm & temperature -5cm: 03.08.2020 23:00:00 - 09.08.2020 23:00:00 (CEST)Zinnwald-Georgenfeld, Germany (10582): temperature -20cm & temperature -100cm: 03.08.2020 23:00:00 - 09.08.2020 23:00:00 (CEST)Zinnwald-Georgenfeld, Germany (10582): wind speed & gusts: 03.08.2020 23:00:00 - 09.08.2020 23:00:00 (CEST)Zinnwald-Georgenfeld, Germany (10582): wind direction: 03.08.2020 23:00:00 - 09.08.2020 23:00:00 (CEST)Zinnwald-Georgenfeld, Germany (10582): visibility: 03.08.2020 23:00:00 - 09.08.2020 23:00:00 (CEST)Zinnwald-Georgenfeld, Germany (10582): sunshine duration: 03.08.2020 23:00:00 - 09.08.2020 23:00:00 (CEST)Zinnwald-Georgenfeld, Germany (10582): precipitation: 03.08.2020 23:00:00 - 09.08.2020 23:00:00 (CEST)
Date & Time tt [°C] td [°C] tt 5cm [°C] tt -5cm [°C] tt -20cm [°C] tt -100cm [°C] ff [km/h] ff [kn] fx [km/h] fx [kn] dd vv [km] sd [min] rr [mm]
09.08.2020 23:00:00 21,6 12,8 17,8 22,3 23,5 15,4 11 6 17 9 SSE 52 0 0,0
09.08.2020 22:00:00 22,3 12,5 20,1 23,5 23,8 15,4 13 7 19 10 SE 55 0 0,0
09.08.2020 21:00:00 22,8 12,5 21,0 25,2 23,9 15,4 14 8 19 10 ESE 51 5 0,0
09.08.2020 20:00:00 24,3 12,7 22,8 27,5 23,9 15,4 11 6 15 8 ESE 54 51 0,0
09.08.2020 19:00:00 26,4 11,5 26,3 29,8 23,7 15,4 6 3 15 8 ESE 58 60 0,0
09.08.2020 18:00:00 26,2 12,0 27,7 30,6 23,4 15,3 8 4 20 11 ESE 49 30 0,0
09.08.2020 17:00:00 27,1 11,9 29,6 32,8 23,0 15,3 11 6 22 12 ESE 51 57 0,0
09.08.2020 16:00:00 26,5 12,3 29,4 32,0 22,4 15,3 13 7 21 11 E 45 20 0,0
09.08.2020 15:00:00 27,8 11,6 32,3 35,0 21,7 15,3 11 6 24 13 NE 63 60 0,0
09.08.2020 14:00:00 27,9 9,7 32,4 33,5 21,0 15,3 9 5 20 11 S 56 60 0,0
09.08.2020 13:00:00 27,1 10,9 32,2 31,6 20,4 15,3 7 4 22 12 SSW 44 60 0,0
09.08.2020 12:00:00 26,5 12,2 30,4 29,5 19,9 15,3 12 6 23 12 SE 44 60 0,0
09.08.2020 11:00:00 25,7 12,9 29,2 26,6 19,6 15,3 11 6 19 11 SSE 43 60 0,0
09.08.2020 10:00:00 25,8 12,7 28,8 23,5 19,5 15,2 6 3 14 8 SSE 46 60 0,0
09.08.2020 09:00:00 24,8 12,1 26,4 20,4 19,6 15,2 3 2 8 5 SSE 59 60 0,0
09.08.2020 08:00:00 22,5 11,8 23,9 17,9 19,8 15,2 5 3 9 5 SW 56 60 0,0
09.08.2020 07:00:00 20,2 10,5 17,8 16,6 20,1 15,2 6 4 10 5 S 59 22 0,0
09.08.2020 06:00:00 19,5 10,5 13,9 16,5 20,4 15,2 8 5 11 6 SSE 56 0 0,0
09.08.2020 05:00:00 19,2 11,4 13,8 16,9 20,8 15,2 9 5 12 7 S 55 0 0,0
09.08.2020 04:00:00 18,8 11,0 14,1 17,4 21,1 15,2 12 6 13 7 SSE 55 0 0,0
09.08.2020 03:00:00 19,2 10,1 13,4 17,9 21,5 15,2 8 5 13 7 S 57 0 0,0
09.08.2020 02:00:00 19,8 9,5 14,7 18,6 21,8 15,2 11 6 12 7 SSE 61 0 0,0
09.08.2020 01:00:00 20,0 9,8 15,3 19,4 22,2 15,2 11 6 14 7 S 54 0 0,0
09.08.2020 00:00:00 20,3 10,4 15,6 20,3 22,5 15,2 11 6 12 6 S 54 0 0,0
08.08.2020 23:00:00 21,1 10,5 15,8 21,4 22,9 15,1 9 5 11 6 SSE 62 0 0,0
08.08.2020 22:00:00 21,9 9,7 16,3 22,8 23,1 15,1 9 5 12 7 SSE 61 0 0,0
08.08.2020 21:00:00 22,6 9,3 17,7 24,6 23,2 15,1 9 5 13 7 SE 63 4 0,0
08.08.2020 20:00:00 25,0 11,8 20,8 27,3 23,2 15,1 6 3 10 6 SSE 55 57 0,0
08.08.2020 19:00:00 26,0 12,3 25,8 29,6 23,0 15,1 5 3 12 7 SSE 64 60 0,0
08.08.2020 18:00:00 25,9 11,2 27,0 30,7 22,7 15,1 9 5 15 8 SE 55 48 0,0
08.08.2020 17:00:00 26,5 12,1 28,7 31,4 22,2 15,1 7 4 12 7 E 55 22 0,0
08.08.2020 16:00:00 26,7 11,1 30,4 33,4 21,6 15,1 7 4 18 10 NNE 61 49 0,0
08.08.2020 15:00:00 26,4 11,7 28,7 32,5 21,0 15,1 10 5 23 13 E 69 30 0,0
08.08.2020 14:00:00 26,9 11,4 30,9 32,3 20,3 15,1 6 3 22 12 SE 58 39 0,0
08.08.2020 13:00:00 26,3 11,0 30,3 31,8 19,7 15,0 9 5 22 12 SE 55 59 0,0
08.08.2020 12:00:00 26,2 11,5 29,8 29,3 19,2 15,0 13 7 24 13 S 58 60 0,0
08.08.2020 11:00:00 25,6 11,6 29,6 26,5 18,9 15,0 10 6 19 10 S 53 60 0,0
08.08.2020 10:00:00 25,2 13,2 28,4 23,2 18,7 15,0 7 4 12 7 ESE 55 60 0,0
08.08.2020 09:00:00 24,3 13,2 26,4 20,0 18,8 15,0 5 3 8 4 SSE 58 60 0,0
08.08.2020 08:00:00 22,3 13,3 23,6 17,4 19,0 15,0 4 2 7 4 SSW 56 60 0,0
08.08.2020 07:00:00 19,7 11,8 18,6 15,7 19,3 15,0 4 2 8 4 S 57 30 0,0
08.08.2020 06:00:00 19,1 11,1 12,4 15,6 19,6 15,0 6 4 11 6 SSE 59 0 0,0
08.08.2020 05:00:00 18,6 11,3 12,3 16,0 19,9 15,0 10 5 12 6 SE 51 0 0,0
08.08.2020 04:00:00 19,4 11,5 12,8 16,5 20,3 15,0 5 3 6 3 S 56 0 0,0
08.08.2020 03:00:00 19,3 11,5 12,7 17,0 20,6 15,0 6 3 8 4 S 59 0 0,0
08.08.2020 02:00:00 19,2 11,0 12,8 17,6 21,0 15,0 6 4 9 5 S 53 0 0,0
08.08.2020 01:00:00 19,8 10,6 13,0 18,4 21,4 15,0 5 3 9 5 SSE 60 0 0,0
08.08.2020 00:00:00 20,0 10,4 13,5 19,4 21,8 15,0 9 5 13 7 SE 59 0 0,0
07.08.2020 23:00:00 20,3 11,2 14,8 20,6 22,1 15,0 10 6 11 6 SE 55 0 0,0
07.08.2020 22:00:00 20,7 11,3 16,0 22,1 22,3 15,0 10 5 13 7 SE 71 0 0,0
07.08.2020 21:00:00 21,5 12,0 16,3 24,1 22,4 15,0 9 5 10 5 SE 56 12 0,0
07.08.2020 20:00:00 23,0 13,0 21,3 27,0 22,4 15,0 8 4 17 9 SE 68 59 0,0
07.08.2020 19:00:00 24,2 12,5 24,3 29,6 22,1 15,0 11 6 24 13 SE 60 60 0,0
07.08.2020 18:00:00 24,8 13,0 26,5 31,4 21,7 15,0 13 7 26 14 SE 62 56 0,0
07.08.2020 17:00:00 24,9 13,8 27,6 32,5 21,1 15,0 14 7 27 15 SSE 54 55 0,0
07.08.2020 16:00:00 25,0 14,7 28,9 33,2 20,4 15,0 13 7 24 13 S 41 53 0,0
07.08.2020 15:00:00 25,4 15,2 29,5 33,2 19,7 15,0 12 6 21 12 S 64 60 0,0
07.08.2020 14:00:00 24,2 14,5 27,9 32,0 19,0 15,0 10 6 23 13 SSE 43 60 0,0
07.08.2020 13:00:00 23,6 14,7 27,5 29,9 18,4 15,0 10 5 19 10 SSE 48 60 0,0
07.08.2020 12:00:00 22,2 14,4 26,3 27,5 17,9 15,0 8 5 19 11 SE 40 60 0,0
07.08.2020 11:00:00 21,5 15,6 26,1 24,6 17,6 15,0 11 6 20 11 S 49 58 0,0
07.08.2020 10:00:00 20,6 15,0 23,8 21,6 17,5 15,0 11 6 17 9 SSE 41 60 0,0
07.08.2020 09:00:00 19,9 14,7 22,0 18,7 17,5 15,0 6 3 11 6 SSE 41 60 0,0
07.08.2020 08:00:00 18,2 14,7 19,3 16,3 17,7 15,0 5 3 8 4 SSE 34 60 0,0
07.08.2020 07:00:00 15,9 13,9 16,0 14,7 17,9 15,0 7 4 14 8 S 32 31 0,0
07.08.2020 06:00:00 14,6 12,9 12,4 14,6 18,2 15,0 14 7 15 8 S 30 0 0,0
07.08.2020 05:00:00 14,7 12,9 12,0 14,9 18,5 15,0 12 6 15 8 S 31 0 0,0
07.08.2020 04:00:00 14,8 13,0 12,5 15,4 18,8 15,0 13 7 18 10 S 22 0 0,0
07.08.2020 03:00:00 15,2 13,1 13,4 15,9 19,1 15,0 16 8 18 10 SSE 35 0 0,0
07.08.2020 02:00:00 15,3 13,2 13,4 16,5 19,4 15,0 11 6 18 10 SSE 34 0 0,0
07.08.2020 01:00:00 15,9 13,5 14,4 17,3 19,7 15,0 13 7 22 12 SSE 40 0 0,0
07.08.2020 00:00:00 16,3 14,0 14,7 18,1 20,0 15,0 13 7 21 11 SSE 35 0 0,0
06.08.2020 23:00:00 17,2 14,1 16,0 19,1 20,3 15,0 15 8 23 12 SE 39 0 0,0
06.08.2020 22:00:00 17,3 13,8 15,9 20,4 20,5 15,0 13 7 19 10 E 41 0 0,0
06.08.2020 21:00:00 18,3 12,0 15,6 22,3 20,6 15,0 8 4 13 7 NE 75 13 0,0
06.08.2020 20:00:00 20,5 12,3 19,0 25,2 20,4 15,0 9 5 17 9 E 75 60 0,0
06.08.2020 19:00:00 21,9 12,1 21,9 28,0 20,1 15,0 13 7 23 12 ENE 70 60 0,0
06.08.2020 18:00:00 22,7 12,0 24,2 29,8 19,6 15,0 7 4 22 12 E 75 60 0,0
06.08.2020 17:00:00 22,5 11,2 25,3 30,7 19,0 15,0 9 5 23 13 E 66 60 0,0
06.08.2020 16:00:00 22,7 11,9 26,4 30,8 18,3 15,0 14 8 26 14 ENE 75 60 0,0
06.08.2020 15:00:00 22,6 12,2 26,7 30,1 17,6 15,0 8 5 23 13 ENE 67 58 0,0
06.08.2020 14:00:00 21,5 10,9 25,7 28,2 16,9 15,1 10 5 19 11 NE 52 56 0,0
06.08.2020 13:00:00 21,1 10,5 25,1 27,3 16,3 15,1 8 4 21 12 NNE 74 60 0,0
06.08.2020 12:00:00 20,4 10,5 24,2 24,9 15,8 15,1 8 4 17 9 NE 69 60 0,0
06.08.2020 11:00:00 19,8 10,0 23,2 21,8 15,5 15,1 7 4 14 8 E 52 60 0,0
06.08.2020 10:00:00 18,9 8,9 21,9 18,6 15,3 15,1 7 4 19 11 E 52 60 0,0
06.08.2020 09:00:00 17,8 9,7 19,9 15,7 15,4 15,1 5 3 12 7 SE 71 60 0,0
06.08.2020 08:00:00 15,8 9,5 17,1 12,9 15,5 15,1 4 2 9 5 S 66 60 0,0
06.08.2020 07:00:00 13,5 8,5 15,0 10,9 15,8 15,1 6 4 11 6 SSW 75 35 0,0
06.08.2020 06:00:00 11,9 7,4 7,6 10,7 16,1 15,1 9 5 16 9 S 75 0 0,0
06.08.2020 05:00:00 11,5 7,5 7,5 11,1 16,4 15,1 10 5 13 7 S 75 0 0,0
06.08.2020 04:00:00 11,3 7,7 7,9 11,6 16,7 15,1 11 6 17 9 S 75 0 0,0
06.08.2020 03:00:00 11,9 7,9 9,2 12,3 17,0 15,2 14 7 19 11 SSE 75 0 0,0
06.08.2020 02:00:00 12,7 8,7 10,2 12,8 17,4 15,2 14 7 16 9 SSE 72 0 0,0
06.08.2020 01:00:00 12,8 8,4 9,8 13,5 17,7 15,2 12 7 17 9 SSE 75 0 0,0
06.08.2020 00:00:00 13,5 7,7 10,7 14,3 18,0 15,2 11 6 18 10 SSE 75 0 0,0
05.08.2020 23:00:00 14,2 7,9 11,1 15,4 18,3 15,2 10 6 16 8 SE 75 0 0,0
05.08.2020 22:00:00 14,6 7,8 12,2 16,8 18,5 15,2 11 6 13 7 SE 74 0 0,0
05.08.2020 21:00:00 15,7 7,1 13,3 18,8 18,6 15,2 10 5 13 7 SE 75 13 0,0
05.08.2020 20:00:00 17,6 8,2 15,2 21,6 18,4 15,2 6 3 14 8 SE 75 60 0,0
05.08.2020 19:00:00 18,8 7,6 18,7 24,4 18,1 15,2 9 5 18 10 S 75 60 0,0
05.08.2020 18:00:00 19,2 7,2 21,2 26,2 17,6 15,2 9 5 22 12 ESE 66 60 0,0
05.08.2020 17:00:00 19,7 7,8 22,3 26,6 17,2 15,3 9 5 19 10 SSE 68 59 0,0
05.08.2020 16:00:00 18,6 8,0 21,8 24,4 16,6 15,3 5 3 16 9 NNE 74 21 0,0
05.08.2020 15:00:00 19,1 8,5 22,3 27,0 16,0 15,3 9 5 19 10 ENE 75 59 0,0
05.08.2020 14:00:00 18,2 8,0 20,5 24,1 15,4 15,3 12 7 22 12 S 72 43 0,0
05.08.2020 13:00:00 18,2 6,7 22,2 23,4 14,9 15,3 7 4 18 10 N 75 58 0,0
05.08.2020 12:00:00 17,6 6,4 20,7 22,1 14,4 15,3 7 4 22 12 ESE 71 60 0,0
05.08.2020 11:00:00 17,0 6,2 20,0 19,6 14,0 15,3 10 6 22 12 ENE 75 60 0,0
05.08.2020 10:00:00 16,8 6,3 19,5 17,1 13,8 15,3 6 3 19 10 NE 65 60 0,0
05.08.2020 09:00:00 15,3 6,5 17,9 13,7 13,8 15,3 9 5 16 9 NNW 75 60 0,0
05.08.2020 08:00:00 14,5 7,2 15,8 10,9 13,9 15,3 4 2 10 5 NNW 72 60 0,0
05.08.2020 07:00:00 11,8 7,0 12,4 8,8 14,1 15,3 6 3 12 7 NW 75 37 0,0
05.08.2020 06:00:00 10,5 6,0 6,3 8,6 14,4 15,4 8 4 15 8 NW 75 0 0,0
05.08.2020 05:00:00 10,0 5,9 6,6 8,8 14,6 15,4 10 5 11 6 NNW 75 0 0,0
05.08.2020 04:00:00 10,5 6,2 5,7 9,2 14,8 15,4 9 5 13 7 NW 75 0 0,0
05.08.2020 03:00:00 10,6 6,6 6,4 9,7 15,0 15,4 13 7 14 8 NW 75 0 0,0
05.08.2020 02:00:00 10,6 6,2 6,8 10,3 15,2 15,4 9 5 15 8 NNW 72 0 0,0
05.08.2020 01:00:00 11,0 7,1 8,7 10,9 15,4 15,4 13 7 17 9 NNW 75 0 0,0
05.08.2020 00:00:00 11,0 7,3 8,9 11,7 15,6 15,4 13 7 16 9 NNW 73 0 0,0
04.08.2020 23:00:00 11,4 8,1 9,4 13,0 15,6 15,4 11 6 13 7 WNW 75 0 0,0
04.08.2020 22:00:00 11,6 9,1 10,8 13,5 15,7 15,4 8 5 11 6 W 60 0 0,0
04.08.2020 21:00:00 11,8 10,1 11,0 14,3 15,7 15,4 5 3 12 6 S 48 3 0,0
04.08.2020 20:00:00 13,5 8,1 12,9 15,1 15,6 15,4 8 4 26 14 NNW 75 33 0,0
04.08.2020 19:00:00 13,4 8,2 12,2 15,4 15,6 15,4 15 8 27 15 NNW 75 4 0,1
04.08.2020 18:00:00 12,4 9,7 11,9 15,0 15,6 15,4 10 5 23 12 N 23 0 0,1
04.08.2020 17:00:00 12,8 8,7 13,2 14,8 15,5 15,4 14 8 28 15 N 66 0 0,0
04.08.2020 16:00:00 12,6 8,3 13,1 14,8 15,5 15,4 18 10 29 16 N 74 0 0,0
04.08.2020 15:00:00 11,8 7,9 12,2 14,6 15,4 15,4 21 11 42 23 NNW 74 0 0,0
04.08.2020 14:00:00 11,8 7,5 12,2 15,4 15,3 15,4 25 14 45 24 NNW 73 0 0,0
04.08.2020 13:00:00 11,9 8,3 12,9 14,8 15,3 15,4 25 13 42 23 N 67 0 0,0
04.08.2020 12:00:00 11,0 8,2 11,5 13,9 15,3 15,4 29 16 44 24 N 69 0 0,0
04.08.2020 11:00:00 10,1 8,5 10,0 12,5 15,4 15,4 23 13 42 23 N 48 0 0,1
04.08.2020 10:00:00 9,5 8,3 9,4 12,1 15,6 15,4 31 17 45 24 N 30 0 0,1
04.08.2020 09:00:00 9,0 7,9 8,9 11,5 15,7 15,4 27 15 41 22 N 35 0 0,1
04.08.2020 08:00:00 9,0 7,3 8,8 11,4 15,9 15,4 30 16 43 23 N 51 0 0,0
04.08.2020 07:00:00 9,3 7,2 9,0 11,6 16,1 15,4 30 16 48 26 N 59 0 0,0
04.08.2020 06:00:00 9,6 8,1 9,3 12,1 16,3 15,4 32 17 49 26 N 44 0 0,0
04.08.2020 05:00:00 10,4 9,1 9,9 12,7 16,4 15,4 31 17 53 29 NNE 25 0 0,0
04.08.2020 04:00:00 10,9 10,2 10,5 13,1 16,5 15,4 31 17 50 27 N 11 0 0,0
04.08.2020 03:00:00 11,7 11,5 11,7 13,4 16,7 15,4 26 14 44 24 NNE 0,2 0 0,0
04.08.2020 02:00:00 11,9 11,7 11,9 13,6 16,8 15,4 25 13 39 21 NNE 0,2 0 0,0
04.08.2020 01:00:00 11,9 11,7 11,9 13,7 17,0 15,4 21 11 36 19 NNE 0,1 0 0,0
04.08.2020 00:00:00 12,0 11,8 12,0 13,8 17,1 15,4 20 11 32 17 NNE 0,1 0 0,0
03.08.2020 23:00:00 12,1 11,8 12,1 13,9 17,3 15,4 18 10 29 16 N 0,4 0 0,0

tt = temperature
td = dewpoint
tt 5cm = temperature 5cm
tt -5cm = temperature -5cm
tt -20cm = temperature -20cm
tt -100cm = temperature -100cm
ff = wind speed
fx = gusts
dd = wind direction
vv = visibility
sd = sunshine duration
rr = precipitation

Next stations